createdAt,value
2018-04-14T00:01:13.918Z,101514.84
2018-04-14T00:03:41.428Z,101512.39
2018-04-14T00:06:08.967Z,101519.42
2018-04-14T00:08:36.516Z,101518.18
2018-04-14T00:11:06.423Z,101526.47
2018-04-14T00:13:34.015Z,101523.02
2018-04-14T00:16:02.607Z,101521.28
2018-04-14T00:18:31.618Z,101518.27
2018-04-14T00:20:59.163Z,101530.44
2018-04-14T00:23:26.746Z,101520.89
2018-04-14T00:25:54.300Z,101524.78
2018-04-14T00:28:22.513Z,101528.23
2018-04-14T00:30:50.152Z,101536.47
2018-04-14T00:33:18.586Z,101540.73
2018-04-14T00:35:46.075Z,101534.58
2018-04-14T00:38:13.640Z,101531.94
2018-04-14T00:40:41.182Z,101530.58
2018-04-14T00:43:08.750Z,101532.27
2018-04-14T00:45:38.515Z,101533.08
2018-04-14T00:48:06.067Z,101531.76
2018-04-14T00:50:34.155Z,101537.75
2018-04-14T00:53:13.475Z,101539.91
2018-04-14T00:55:41.039Z,101547.73
2018-04-14T00:58:08.592Z,101547.64
2018-04-14T01:00:36.242Z,101546.75
2018-04-14T01:03:06.356Z,101548.41
2018-04-14T01:05:33.960Z,101544.47
2018-04-14T01:08:01.909Z,101550.03
2018-04-14T01:10:31.675Z,101548.27
2018-04-14T01:12:59.218Z,101549.07
2018-04-14T01:15:26.720Z,101554.24
2018-04-14T01:17:55.232Z,101544.63
2018-04-14T01:20:24.715Z,101548.94
2018-04-14T01:22:53.373Z,101550.61
2018-04-14T01:25:25.252Z,101540.18
2018-04-14T01:27:52.763Z,101545.36
2018-04-14T01:30:20.264Z,101542.27
2018-04-14T01:32:47.778Z,101546.16
2018-04-14T01:35:15.385Z,101544.88
2018-04-14T01:37:44.790Z,101547.48
2018-04-14T01:40:14.366Z,101541.89
2018-04-14T01:42:47.680Z,101542.80
2018-04-14T01:45:15.215Z,101546.34
2018-04-14T01:47:42.759Z,101543.34
2018-04-14T01:50:10.288Z,101548.22
2018-04-14T01:52:37.931Z,101545.27
2018-04-14T01:55:08.624Z,101545.72
2018-04-14T01:57:37.353Z,101549.67
2018-04-14T02:00:05.928Z,101547.97
2018-04-14T02:02:33.455Z,101551.06
2018-04-14T02:05:00.999Z,101545.03
2018-04-14T02:07:28.514Z,101548.16
2018-04-14T02:09:56.231Z,101540.44
2018-04-14T02:12:26.187Z,101544.42
2018-04-14T02:14:56.645Z,101551.03
2018-04-14T02:17:26.263Z,101552.01
2018-04-14T02:19:53.883Z,101554.70
2018-04-14T02:22:21.427Z,101556.98
2018-04-14T02:24:48.986Z,101555.42
2018-04-14T02:27:16.586Z,101553.34
2018-04-14T02:29:46.635Z,101544.36
2018-04-14T02:32:14.177Z,101552.26
2018-04-14T02:34:44.772Z,101549.38
2018-04-14T02:37:12.340Z,101556.45
2018-04-14T02:39:39.834Z,101546.61
2018-04-14T02:42:07.451Z,101551.94
2018-04-14T02:44:35.060Z,101547.27
2018-04-14T02:47:04.433Z,101541.77
2018-04-14T02:49:33.167Z,101539.36
2018-04-14T02:52:01.785Z,101545.13
2018-04-14T02:54:29.306Z,101549.57
2018-04-14T02:56:56.854Z,101557.51
2018-04-14T02:59:24.448Z,101546.78
2018-04-14T03:01:52.063Z,101551.23
2018-04-14T03:04:20.632Z,101554.83
2018-04-14T03:06:50.697Z,101550.59
2018-04-14T03:09:22.095Z,101559.36
2018-04-14T03:11:49.619Z,101560.34
2018-04-14T03:14:17.162Z,101553.56
2018-04-14T03:16:44.691Z,101563.61
2018-04-14T03:19:12.314Z,101563.20
2018-04-14T03:21:40.986Z,101562.78
2018-04-14T03:24:13.553Z,101558.00
2018-04-14T03:26:42.054Z,101555.02
2018-04-14T03:29:09.583Z,101561.52
2018-04-14T03:31:37.099Z,101558.52
2018-04-14T03:34:04.639Z,101556.37
2018-04-14T03:36:32.255Z,101557.73
2018-04-14T03:39:02.207Z,101555.20
2018-04-14T03:41:32.582Z,101552.20
2018-04-14T03:44:02.671Z,101560.92
2018-04-14T03:46:30.190Z,101563.52
2018-04-14T03:48:57.727Z,101569.97
2018-04-14T03:51:25.255Z,101569.09
2018-04-14T03:53:52.863Z,101573.80
2018-04-14T03:56:22.463Z,101569.37
2018-04-14T03:58:50.059Z,101574.55
2018-04-14T04:01:18.211Z,101581.41
2018-04-14T04:03:45.754Z,101584.88
2018-04-14T04:06:13.267Z,101586.17
2018-04-14T04:08:40.795Z,101584.80
2018-04-14T04:11:08.470Z,101582.99
2018-04-14T04:13:38.769Z,101584.27
2018-04-14T04:16:08.371Z,101588.53
2018-04-14T04:18:49.507Z,101592.41
2018-04-14T04:21:28.763Z,101596.69
2018-04-14T04:24:08.070Z,101595.80
2018-04-14T04:26:35.656Z,101599.24
2018-04-14T04:29:05.055Z,101603.95
2018-04-14T04:31:33.575Z,101602.64
2018-04-14T04:34:03.165Z,101603.45
2018-04-14T04:36:33.453Z,101601.70
2018-04-14T04:39:00.951Z,101601.70
2018-04-14T04:41:28.502Z,101606.45
2018-04-14T04:43:55.994Z,101612.03
2018-04-14T04:46:25.758Z,101607.66
2018-04-14T04:48:54.904Z,101611.86
2018-04-14T04:51:24.540Z,101616.16
2018-04-14T04:53:54.619Z,101610.03
2018-04-14T04:56:22.158Z,101605.67
2018-04-14T04:58:49.683Z,101606.05
2018-04-14T05:01:17.354Z,101609.92
2018-04-14T05:06:21.472Z,101617.66
2018-04-14T05:08:53.659Z,101622.83
2018-04-14T05:11:22.567Z,101624.06
2018-04-14T05:13:50.106Z,101621.40
2018-04-14T05:16:17.726Z,101624.83
2018-04-14T05:18:45.243Z,101620.43
2018-04-14T05:21:13.665Z,101616.50
2018-04-14T05:23:42.746Z,101620.35
2018-04-14T05:26:12.303Z,101624.24
2018-04-14T05:28:42.435Z,101625.55
2018-04-14T05:31:09.947Z,101622.05
2018-04-14T05:33:37.499Z,101620.25
2018-04-14T05:36:05.040Z,101625.03
2018-04-14T05:38:33.492Z,101631.09
2018-04-14T05:41:01.898Z,101626.34
2018-04-14T05:43:30.459Z,101628.94
2018-04-14T05:45:58.243Z,101632.02
2018-04-14T05:48:26.763Z,101635.06
2018-04-14T05:50:55.363Z,101634.23
2018-04-14T05:53:22.871Z,101637.26
2018-04-14T05:55:53.547Z,101648.16
2018-04-14T05:58:37.693Z,101655.50
2018-04-14T06:01:13.563Z,101651.64
2018-04-14T06:03:48.979Z,101649.92
2018-04-14T06:06:16.550Z,101654.27
2018-04-14T06:08:44.095Z,101660.84
2018-04-14T06:11:11.674Z,101657.83
2018-04-14T06:13:42.707Z,101657.45
2018-04-14T06:18:44.785Z,101657.40
2018-04-14T06:21:12.989Z,101653.05
2018-04-14T06:23:40.522Z,101656.50
2018-04-14T06:26:08.032Z,101651.66
2018-04-14T06:28:35.543Z,101652.88
2018-04-14T06:31:04.781Z,101652.00
2018-04-14T06:33:32.998Z,101644.61
2018-04-14T06:36:04.389Z,101653.67
2018-04-14T06:38:34.405Z,101658.05
2018-04-14T06:41:02.298Z,101655.81
2018-04-14T06:43:29.799Z,101657.05
2018-04-14T06:45:57.355Z,101657.89
2018-04-14T06:48:34.007Z,101664.81
2018-04-14T06:53:42.812Z,101663.89
2018-04-14T06:56:17.001Z,101669.96
2018-04-14T06:58:44.544Z,101663.45
2018-04-14T07:01:12.144Z,101664.31
2018-04-14T07:03:39.670Z,101666.04
2018-04-14T07:06:12.625Z,101669.07
2018-04-14T07:08:42.772Z,101665.17
2018-04-14T07:35:30.543Z,101667.22
2018-04-14T07:37:58.100Z,101670.23
2018-04-14T07:40:26.407Z,101666.69
2018-04-14T07:42:57.492Z,101666.60
2018-04-14T07:45:26.117Z,101666.50
2018-04-14T07:47:53.619Z,101664.69
2018-04-14T07:50:21.153Z,101666.39
2018-04-14T07:52:48.728Z,101670.23
2018-04-14T07:55:16.288Z,101665.84
2018-04-14T07:57:45.417Z,101658.29
2018-04-14T08:00:14.654Z,101662.03
2018-04-14T08:02:42.328Z,101660.91
2018-04-14T08:05:09.871Z,101652.94
2018-04-14T08:07:37.446Z,101660.06
2018-04-14T08:10:04.992Z,101660.30
2018-04-14T08:12:32.583Z,101657.94
2018-04-14T08:15:00.804Z,101665.16
2018-04-14T08:17:28.764Z,101665.00
2018-04-14T08:19:56.828Z,101662.12
2018-04-14T08:22:24.415Z,101662.79
2018-04-14T08:24:51.936Z,101661.27
2018-04-14T08:27:19.444Z,101663.16
2018-04-14T08:29:47.035Z,101659.46
2018-04-14T08:32:14.643Z,101660.02
2018-04-14T08:34:42.238Z,101653.66
2018-04-14T08:37:13.185Z,101658.98
2018-04-14T08:39:40.703Z,101659.54
2018-04-14T08:42:08.222Z,101661.42
2018-04-14T08:44:35.811Z,101661.59
2018-04-14T08:47:03.379Z,101662.64
2018-04-14T08:49:31.287Z,101663.74
2018-04-14T08:52:01.785Z,101663.08
2018-04-14T08:54:30.614Z,101664.59
2018-04-14T08:56:58.167Z,101664.83
2018-04-14T08:59:25.726Z,101657.64
2018-04-14T09:01:53.249Z,101659.12
2018-04-14T09:04:20.812Z,101661.95
2018-04-14T09:06:48.759Z,101663.51
2018-04-14T09:09:16.775Z,101656.83
2018-04-14T09:11:45.259Z,101661.83
2018-04-14T09:14:12.863Z,101653.69
2018-04-14T09:16:40.449Z,101650.83
2018-04-14T09:19:07.991Z,101648.41
2018-04-14T09:21:35.600Z,101655.17
2018-04-14T09:24:03.085Z,101649.71
2018-04-14T09:26:30.615Z,101642.57
2018-04-14T09:28:58.842Z,101652.02
2018-04-14T09:31:26.398Z,101649.01
2018-04-14T09:33:53.873Z,101656.08
2018-04-14T09:36:21.471Z,101658.30
2018-04-14T09:38:49.085Z,101653.63
2018-04-14T09:49:17.569Z,101675.96
2018-04-14T09:51:45.130Z,101679.12
2018-04-14T09:54:12.682Z,101675.28
2018-04-14T09:56:40.677Z,101682.70
2018-04-14T09:59:30.741Z,101678.72
2018-04-14T10:07:35.287Z,101682.39
2018-04-14T10:10:02.877Z,101681.24
2018-04-14T10:12:30.431Z,101683.33
2018-04-14T10:22:52.099Z,101680.48
2018-04-14T10:25:19.754Z,101671.84
2018-04-14T10:27:47.313Z,101672.31
2018-04-14T10:30:14.927Z,101672.62
2018-04-14T10:41:50.579Z,101675.11
2018-04-14T10:44:18.138Z,101675.92
2018-04-14T10:46:45.681Z,101675.14
2018-04-14T10:58:29.498Z,101674.41
2018-04-14T11:00:57.019Z,101674.92
2018-04-14T11:03:24.688Z,101665.48
2018-04-14T11:16:24.112Z,101658.20
2018-04-14T11:18:51.669Z,101656.91
2018-04-14T11:21:19.287Z,101661.60
2018-04-14T11:23:46.865Z,101660.72
2018-04-14T11:26:14.541Z,101662.66
2018-04-14T11:28:45.797Z,101659.52
2018-04-14T11:31:14.431Z,101653.75
2018-04-14T11:33:41.956Z,101656.25
2018-04-14T11:36:09.485Z,101648.31
2018-04-14T11:38:37.095Z,101653.17
2018-04-14T11:41:04.853Z,101646.00
2018-04-14T11:43:32.507Z,101647.88
2018-04-14T11:46:00.124Z,101645.39
2018-04-14T11:48:27.724Z,101644.00
2018-04-14T11:50:55.257Z,101644.59
2018-04-14T11:53:22.859Z,101647.16
2018-04-14T11:55:50.387Z,101649.63
2018-04-14T11:58:18.143Z,101651.57
2018-04-14T12:00:45.699Z,101645.40
2018-04-14T12:03:13.331Z,101643.16
2018-04-14T12:05:40.920Z,101640.26
2018-04-14T12:08:08.493Z,101633.51
2018-04-14T12:10:36.017Z,101625.27
2018-04-14T12:13:03.599Z,101619.25
2018-04-14T12:15:31.220Z,101613.19
2018-04-14T12:17:58.775Z,101615.75
2018-04-14T12:20:26.503Z,101610.28
2018-04-14T12:22:54.076Z,101608.08
2018-04-14T12:25:21.692Z,101605.23
2018-04-14T12:27:49.204Z,101594.14
2018-04-14T12:30:16.727Z,101592.32
2018-04-14T12:32:44.411Z,101595.28
2018-04-14T12:35:12.171Z,101588.19
2018-04-14T12:37:39.837Z,101580.52
2018-04-14T12:40:07.515Z,101567.75
2018-04-14T12:42:35.082Z,101580.30
2018-04-14T12:45:02.600Z,101579.08
2018-04-14T12:47:30.145Z,101569.44
2018-04-14T12:49:57.725Z,101567.12
2018-04-14T12:52:25.334Z,101569.24
2018-04-14T12:54:52.959Z,101561.19
2018-04-14T12:57:20.635Z,101565.63
2018-04-14T12:59:48.179Z,101563.39
2018-04-14T13:02:15.743Z,101551.58
2018-04-14T13:04:44.293Z,101554.16
2018-04-14T13:07:14.424Z,101542.66
2018-04-14T13:09:45.869Z,101538.75
2018-04-14T13:12:14.819Z,101536.28
2018-04-14T13:14:42.583Z,101536.58
2018-04-14T13:17:10.112Z,101527.05
2018-04-14T13:19:37.647Z,101533.27
2018-04-14T13:22:05.300Z,101528.13
2018-04-14T13:24:36.825Z,101521.60
2018-04-14T13:27:08.842Z,101519.42
2018-04-14T13:29:40.757Z,101525.17
2018-04-14T13:32:12.700Z,101523.34
2018-04-14T13:34:40.267Z,101515.66
2018-04-14T13:37:07.838Z,101524.02
2018-04-14T13:39:35.408Z,101511.41
2018-04-14T13:42:04.771Z,101507.05
2018-04-14T13:44:36.967Z,101504.27
2018-04-14T13:47:05.885Z,101498.09
2018-04-14T13:49:33.415Z,101493.93
2018-04-14T13:52:00.960Z,101498.32
2018-04-14T13:54:28.525Z,101491.44
2018-04-14T13:56:56.090Z,101482.43
2018-04-14T13:59:26.045Z,101490.38
2018-04-14T14:01:56.849Z,101483.92
2018-04-14T14:04:26.808Z,101484.33
2018-04-14T14:06:54.363Z,101478.64
2018-04-14T14:09:21.873Z,101486.55
2018-04-14T14:11:49.463Z,101480.38
2018-04-14T14:14:17.072Z,101483.09
2018-04-14T14:16:46.952Z,101479.42
2018-04-14T14:19:14.633Z,101477.44
2018-04-14T14:21:42.947Z,101471.98
2018-04-14T14:24:10.747Z,101468.29
2018-04-14T14:26:38.379Z,101460.92
2018-04-14T14:29:05.997Z,101452.75
2018-04-14T14:31:33.592Z,101442.39
2018-04-14T14:34:01.143Z,101442.20
2018-04-14T14:39:14.122Z,101440.78
2018-04-14T14:41:43.198Z,101442.77
2018-04-14T14:44:10.723Z,101446.55
2018-04-14T14:46:38.287Z,101438.13
2018-04-14T14:49:05.895Z,101442.20
2018-04-14T14:51:33.632Z,101428.85
2018-04-14T14:54:02.369Z,101431.31
2018-04-14T14:56:30.484Z,101428.66
2018-04-14T14:58:59.205Z,101424.50
2018-04-14T15:01:26.760Z,101422.80
2018-04-14T15:03:54.295Z,101419.56
2018-04-14T15:06:21.926Z,101422.97
2018-04-14T15:08:50.695Z,101416.55
2018-04-14T15:11:18.352Z,101409.21
2018-04-14T15:13:47.560Z,101405.90
2018-04-14T15:16:16.152Z,101401.97
2018-04-14T15:18:43.759Z,101394.98
2018-04-14T15:21:12.663Z,101394.97
2018-04-14T15:23:41.996Z,101387.83
2018-04-14T15:26:10.611Z,101390.43
2018-04-14T15:28:39.066Z,101389.16
2018-04-14T15:31:06.707Z,101382.11
2018-04-14T15:33:34.333Z,101385.80
2018-04-14T15:36:01.858Z,101384.05
2018-04-14T15:38:29.382Z,101391.11
2018-04-14T15:40:56.918Z,101388.58
2018-04-14T15:43:24.835Z,101387.27
2018-04-14T15:45:52.999Z,101378.05
2018-04-14T15:48:21.143Z,101378.12
2018-04-14T15:50:49.023Z,101374.20
2018-04-14T15:53:16.591Z,101380.58
2018-04-14T15:55:44.130Z,101376.75
2018-04-14T15:58:11.701Z,101383.60
2018-04-14T16:00:41.099Z,101385.59
2018-04-14T16:03:09.991Z,101383.60
2018-04-14T16:05:38.857Z,101379.02
2018-04-14T16:08:06.478Z,101382.94
2018-04-14T16:10:34.005Z,101387.38
2018-04-14T16:13:01.551Z,101377.94
2018-04-14T16:15:29.113Z,101378.44
2018-04-14T16:17:57.911Z,101373.95
2018-04-14T16:20:29.228Z,101365.69
2018-04-14T16:28:07.763Z,101362.20
2018-04-14T16:30:35.307Z,101356.45
2018-04-14T16:33:02.922Z,101346.81
2018-04-14T16:35:30.519Z,101346.09
2018-04-14T16:37:58.662Z,101347.73
2018-04-14T16:40:33.027Z,101346.23
2018-04-14T16:43:00.680Z,101349.70
2018-04-14T16:45:28.207Z,101351.97
2018-04-14T16:47:55.788Z,101348.78
2018-04-14T16:50:23.386Z,101347.88
2018-04-14T16:52:58.998Z,101347.80
2018-04-14T16:55:26.739Z,101344.77
2018-04-14T17:00:29.143Z,101353.48
2018-04-14T17:02:56.693Z,101351.62
2018-04-14T17:05:24.232Z,101358.25
2018-04-14T17:07:51.863Z,101357.68
2018-04-14T17:10:22.592Z,101357.31
2018-04-14T17:12:53.167Z,101357.92
2018-04-14T17:15:21.665Z,101362.17
2018-04-14T17:17:49.284Z,101362.52
2018-04-14T17:20:16.828Z,101366.04
2018-04-14T17:22:44.388Z,101362.13
2018-04-14T17:25:12.263Z,101359.41
2018-04-14T17:27:41.080Z,101359.17
2018-04-14T17:30:11.115Z,101362.44
2018-04-14T17:32:41.165Z,101366.95
2018-04-14T17:35:08.755Z,101362.73
2018-04-14T17:37:36.295Z,101364.09
2018-04-14T17:40:03.860Z,101369.45
2018-04-14T17:42:31.418Z,101359.22
2018-04-14T17:44:58.986Z,101360.16
2018-04-14T17:47:26.609Z,101356.27
2018-04-14T17:49:55.274Z,101364.77
2018-04-14T17:52:23.820Z,101364.86
2018-04-14T17:54:51.335Z,101362.17
2018-04-14T17:57:18.854Z,101358.69
2018-04-14T17:59:46.635Z,101360.55
2018-04-14T18:07:49.340Z,101360.80
2018-04-14T18:10:16.900Z,101359.53
2018-04-14T18:12:44.432Z,101359.16
2018-04-14T18:15:11.980Z,101359.64
2018-04-14T18:22:50.475Z,101355.30
2018-04-14T18:25:21.245Z,101355.46
2018-04-14T18:27:48.800Z,101356.82
2018-04-14T18:30:16.352Z,101356.46
2018-04-14T18:32:43.887Z,101360.42
2018-04-14T18:35:13.334Z,101357.03
2018-04-14T18:37:45.503Z,101362.33
2018-04-14T18:40:18.034Z,101357.92
2018-04-14T18:42:47.016Z,101356.14
2018-04-14T18:45:14.581Z,101355.16
2018-04-14T18:47:42.112Z,101358.08
2018-04-14T18:50:09.669Z,101362.72
2018-04-14T18:52:38.290Z,101362.16
2018-04-14T18:55:06.983Z,101360.55
2018-04-14T18:57:34.640Z,101357.16
2018-04-14T19:00:05.615Z,101358.11
2018-04-14T19:02:33.187Z,101365.70
2018-04-14T19:05:00.761Z,101366.58
2018-04-14T19:07:28.328Z,101362.34
2018-04-14T19:09:58.114Z,101360.14
2018-04-14T19:12:26.561Z,101362.67
2018-04-14T19:14:55.017Z,101363.03
2018-04-14T19:17:33.085Z,101359.44
2018-04-14T19:20:00.685Z,101355.46
2018-04-14T19:22:28.202Z,101357.11
2018-04-14T19:24:56.415Z,101355.78
2018-04-14T19:27:27.094Z,101354.41
2018-04-14T19:29:54.721Z,101365.16
2018-04-14T19:32:23.128Z,101371.61
2018-04-14T19:34:54.498Z,101356.72
2018-04-14T19:37:22.067Z,101359.18
2018-04-14T19:39:49.739Z,101363.41
2018-04-14T19:42:17.407Z,101351.95
2018-04-14T19:44:49.948Z,101361.53
2018-04-14T19:47:33.248Z,101363.70
2018-04-14T19:50:02.770Z,101359.16
2018-04-14T19:52:30.406Z,101366.44
2018-04-14T19:54:57.956Z,101368.97
2018-04-14T19:57:25.531Z,101366.62
2018-04-14T19:59:53.100Z,101362.50
2018-04-14T20:02:23.175Z,101362.27
2018-04-14T20:04:53.939Z,101361.64
2018-04-14T20:07:34.760Z,101355.02
2018-04-14T20:10:02.307Z,101354.82
2018-04-14T20:12:29.931Z,101363.73
2018-04-14T20:14:57.462Z,101360.06
2018-04-14T20:17:29.493Z,101354.63
2018-04-14T20:20:01.945Z,101363.03
2018-04-14T20:22:34.155Z,101362.37
2018-04-14T20:27:54.578Z,101364.44
2018-04-14T20:30:22.160Z,101371.08
2018-04-14T20:32:49.718Z,101363.88
2018-04-14T20:35:21.021Z,101360.20
2018-04-14T20:46:25.519Z,101365.42
2018-04-14T20:48:53.090Z,101359.75
2018-04-14T20:51:20.701Z,101361.52
2018-04-14T21:02:44.133Z,101337.94
2018-04-14T21:05:11.779Z,101335.34
2018-04-14T21:07:39.327Z,101338.75
2018-04-14T21:10:07.151Z,101341.00
2018-04-14T21:17:46.173Z,101326.80
2018-04-14T21:20:13.811Z,101323.78
2018-04-14T21:22:41.425Z,101316.01
2018-04-14T21:25:08.968Z,101311.31
2018-04-14T21:27:53.215Z,101306.57
2018-04-14T21:35:27.496Z,101299.09
2018-04-14T21:37:55.051Z,101294.33
2018-04-14T21:40:22.572Z,101296.14
2018-04-14T21:42:50.197Z,101290.06
2018-04-14T21:45:21.010Z,101291.82
2018-04-14T21:47:51.153Z,101287.05
2018-04-14T21:50:18.763Z,101284.95
2018-04-14T21:52:49.014Z,101279.78
2018-04-14T21:55:16.573Z,101264.09
2018-04-14T21:57:44.132Z,101263.67
2018-04-14T22:00:11.767Z,101278.11
2018-04-14T22:02:41.025Z,101279.36
2018-04-14T22:05:11.187Z,101281.97
2018-04-14T22:07:46.004Z,101283.27
2018-04-14T22:10:13.615Z,101271.08
2018-04-14T22:12:41.230Z,101261.97
2018-04-14T22:15:08.758Z,101263.36
2018-04-14T22:17:36.322Z,101252.14
2018-04-14T22:20:06.144Z,101253.95
2018-04-14T22:22:35.020Z,101261.02
2018-04-14T22:25:02.792Z,101258.43
2018-04-14T22:27:30.399Z,101255.05
2018-04-14T22:29:57.998Z,101244.69
2018-04-14T22:32:25.564Z,101230.45
2018-04-14T22:34:53.198Z,101223.61
2018-04-14T22:37:24.981Z,101223.23
2018-04-14T22:39:55.130Z,101215.09
2018-04-14T22:42:22.848Z,101223.80
2018-04-14T22:44:51.125Z,101215.20
2018-04-14T22:47:18.659Z,101203.19
2018-04-14T22:49:46.302Z,101204.17
2018-04-14T22:52:13.863Z,101211.64
2018-04-14T22:54:47.197Z,101209.48
2018-04-14T22:57:22.220Z,101201.25
2018-04-14T22:59:50.813Z,101188.29
2018-04-14T23:02:18.355Z,101182.25
2018-04-14T23:04:45.951Z,101168.46
2018-04-14T23:07:13.510Z,101159.08
2018-04-14T23:09:41.035Z,101149.66
2018-04-14T23:12:13.039Z,101151.09
2018-04-14T23:14:43.269Z,101146.44
2018-04-14T23:17:18.803Z,101145.19
2018-04-14T23:19:46.355Z,101147.02
2018-04-14T23:22:15.971Z,101137.16
2018-04-14T23:24:43.551Z,101130.29
2018-04-14T23:27:11.152Z,101137.71
2018-04-14T23:29:38.873Z,101135.61
2018-04-14T23:32:09.340Z,101130.90
2018-04-14T23:34:38.494Z,101131.41
2018-04-14T23:37:06.037Z,101119.73
2018-04-14T23:39:33.623Z,101115.88
2018-04-14T23:42:01.151Z,101118.93
2018-04-14T23:44:28.731Z,101118.05
2018-04-14T23:47:03.018Z,101117.17
2018-04-14T23:49:30.696Z,101125.90
2018-04-14T23:52:01.004Z,101117.63
2018-04-14T23:54:28.544Z,101110.66
2018-04-14T23:56:56.103Z,101118.51
2018-04-14T23:59:23.689Z,101116.34
